sensor_id;sensor_type;location;lat;lon;timestamp;P1;durP1;ratioP1;P2;durP2;ratioP2
59038;SDS011;44824;43.376;19.630;2022-11-20T06:18:48;38.85;;;22.65;;
59038;SDS011;44824;43.376;19.630;2022-11-20T06:21:15;36.88;;;19.75;;
59038;SDS011;44824;43.376;19.630;2022-11-20T06:26:45;20.15;;;10.80;;
59038;SDS011;44824;43.376;19.630;2022-11-20T06:29:11;34.92;;;19.83;;
59038;SDS011;44824;43.376;19.630;2022-11-20T06:31:37;24.08;;;15.05;;
59038;SDS011;44824;43.376;19.630;2022-11-20T06:34:04;25.55;;;16.60;;
59038;SDS011;44824;43.376;19.630;2022-11-20T06:36:31;42.78;;;23.40;;
59038;SDS011;44824;43.376;19.630;2022-11-20T06:38:57;39.13;;;23.38;;
59038;SDS011;44824;43.376;19.630;2022-11-20T06:41:23;37.22;;;30.60;;
59038;SDS011;44824;43.376;19.630;2022-11-20T06:43:50;29.88;;;20.75;;
59038;SDS011;44824;43.376;19.630;2022-11-20T06:46:17;30.03;;;20.30;;
59038;SDS011;44824;43.376;19.630;2022-11-20T06:48:47;39.90;;;23.52;;
59038;SDS011;44824;43.376;19.630;2022-11-20T06:51:13;37.45;;;25.17;;
59038;SDS011;44824;43.376;19.630;2022-11-20T06:56:40;22.52;;;17.50;;
59038;SDS011;44824;43.376;19.630;2022-11-20T06:59:06;21.52;;;15.10;;
59038;SDS011;44824;43.376;19.630;2022-11-20T07:01:32;23.03;;;15.47;;
59038;SDS011;44824;43.376;19.630;2022-11-20T07:03:58;25.77;;;16.63;;
59038;SDS011;44824;43.376;19.630;2022-11-20T07:06:24;22.83;;;15.80;;
59038;SDS011;44824;43.376;19.630;2022-11-20T07:08:51;28.73;;;17.90;;
59038;SDS011;44824;43.376;19.630;2022-11-20T07:11:17;25.33;;;18.00;;
59038;SDS011;44824;43.376;19.630;2022-11-20T07:13:43;25.88;;;17.70;;
59038;SDS011;44824;43.376;19.630;2022-11-20T07:16:09;36.38;;;20.23;;
59038;SDS011;44824;43.376;19.630;2022-11-20T07:18:35;24.85;;;18.08;;
59038;SDS011;44824;43.376;19.630;2022-11-20T07:21:02;23.27;;;17.93;;
59038;SDS011;44824;43.376;19.630;2022-11-20T07:23:29;32.28;;;24.33;;
59038;SDS011;44824;43.376;19.630;2022-11-20T07:25:55;61.35;;;54.33;;
59038;SDS011;44824;43.376;19.630;2022-11-20T07:28:21;24.55;;;18.63;;
59038;SDS011;44824;43.376;19.630;2022-11-20T07:30:53;28.10;;;21.30;;
59038;SDS011;44824;43.376;19.630;2022-11-20T07:33:19;24.55;;;16.77;;
59038;SDS011;44824;43.376;19.630;2022-11-20T07:35:46;27.67;;;18.55;;
59038;SDS011;44824;43.376;19.630;2022-11-20T07:38:12;31.80;;;22.48;;
59038;SDS011;44824;43.376;19.630;2022-11-20T07:40:38;34.53;;;26.00;;
59038;SDS011;44824;43.376;19.630;2022-11-20T07:43:04;41.88;;;30.45;;
59038;SDS011;44824;43.376;19.630;2022-11-20T07:45:30;55.90;;;42.22;;
59038;SDS011;44824;43.376;19.630;2022-11-20T07:47:56;55.85;;;36.92;;
59038;SDS011;44824;43.376;19.630;2022-11-20T07:50:22;59.45;;;43.65;;
59038;SDS011;44824;43.376;19.630;2022-11-20T07:52:49;84.13;;;64.97;;
59038;SDS011;44824;43.376;19.630;2022-11-20T07:55:15;64.10;;;46.00;;
59038;SDS011;44824;43.376;19.630;2022-11-20T07:57:41;67.50;;;58.03;;
59038;SDS011;44824;43.376;19.630;2022-11-20T08:00:08;80.10;;;63.05;;
59038;SDS011;44824;43.376;19.630;2022-11-20T08:02:38;89.28;;;67.40;;
59038;SDS011;44824;43.376;19.630;2022-11-20T08:05:04;99.32;;;68.80;;
59038;SDS011;44824;43.376;19.630;2022-11-20T08:07:35;86.15;;;68.15;;
59038;SDS011;44824;43.376;19.630;2022-11-20T08:10:01;71.45;;;52.15;;
59038;SDS011;44824;43.376;19.630;2022-11-20T08:12:27;67.07;;;46.80;;
59038;SDS011;44824;43.376;19.630;2022-11-20T08:15:12;42.28;;;31.02;;
59038;SDS011;44824;43.376;19.630;2022-11-20T08:17:38;44.75;;;35.58;;
59038;SDS011;44824;43.376;19.630;2022-11-20T08:20:04;60.17;;;47.28;;
59038;SDS011;44824;43.376;19.630;2022-11-20T08:22:30;45.75;;;34.88;;
59038;SDS011;44824;43.376;19.630;2022-11-20T08:24:56;45.30;;;31.48;;
59038;SDS011;44824;43.376;19.630;2022-11-20T08:27:23;55.28;;;40.85;;
59038;SDS011;44824;43.376;19.630;2022-11-20T08:29:49;68.40;;;48.13;;
59038;SDS011;44824;43.376;19.630;2022-11-20T08:32:15;52.95;;;41.03;;
59038;SDS011;44824;43.376;19.630;2022-11-20T08:34:41;40.38;;;30.80;;
59038;SDS011;44824;43.376;19.630;2022-11-20T08:37:07;36.03;;;29.02;;
59038;SDS011;44824;43.376;19.630;2022-11-20T08:39:33;39.05;;;31.55;;
59038;SDS011;44824;43.376;19.630;2022-11-20T08:41:59;48.15;;;38.58;;
59038;SDS011;44824;43.376;19.630;2022-11-20T08:44:25;43.47;;;34.53;;
59038;SDS011;44824;43.376;19.630;2022-11-20T08:46:51;48.08;;;39.92;;
59038;SDS011;44824;43.376;19.630;2022-11-20T08:49:17;57.30;;;44.13;;
59038;SDS011;44824;43.376;19.630;2022-11-20T08:51:43;82.45;;;65.18;;
59038;SDS011;44824;43.376;19.630;2022-11-20T08:54:10;52.80;;;44.70;;
59038;SDS011;44824;43.376;19.630;2022-11-20T08:56:36;67.65;;;54.00;;
59038;SDS011;44824;43.376;19.630;2022-11-20T08:59:02;69.10;;;53.60;;
59038;SDS011;44824;43.376;19.630;2022-11-20T09:01:29;67.43;;;50.88;;
59038;SDS011;44824;43.376;19.630;2022-11-20T09:03:55;62.13;;;51.75;;
59038;SDS011;44824;43.376;19.630;2022-11-20T09:06:22;58.33;;;45.53;;
59038;SDS011;44824;43.376;19.630;2022-11-20T09:08:51;48.33;;;36.33;;
59038;SDS011;44824;43.376;19.630;2022-11-20T09:11:17;50.03;;;34.70;;
59038;SDS011;44824;43.376;19.630;2022-11-20T09:13:43;41.60;;;32.35;;
59038;SDS011;44824;43.376;19.630;2022-11-20T09:16:09;37.63;;;26.55;;
59038;SDS011;44824;43.376;19.630;2022-11-20T09:18:35;37.58;;;29.33;;
59038;SDS011;44824;43.376;19.630;2022-11-20T09:21:03;30.83;;;23.40;;
59038;SDS011;44824;43.376;19.630;2022-11-20T09:23:34;34.35;;;26.55;;
59038;SDS011;44824;43.376;19.630;2022-11-20T09:26:04;29.73;;;21.98;;
59038;SDS011;44824;43.376;19.630;2022-11-20T09:28:31;30.65;;;20.75;;
59038;SDS011;44824;43.376;19.630;2022-11-20T09:30:57;31.08;;;22.10;;
59038;SDS011;44824;43.376;19.630;2022-11-20T09:33:23;28.17;;;20.60;;
59038;SDS011;44824;43.376;19.630;2022-11-20T09:35:49;28.70;;;22.35;;
59038;SDS011;44824;43.376;19.630;2022-11-20T09:38:15;28.42;;;20.40;;
59038;SDS011;44824;43.376;19.630;2022-11-20T09:43:28;21.23;;;15.63;;
59038;SDS011;44824;43.376;19.630;2022-11-20T09:46:04;25.63;;;18.30;;
59038;SDS011;44824;43.376;19.630;2022-11-20T09:51:25;30.55;;;23.90;;
59038;SDS011;44824;43.376;19.630;2022-11-20T09:56:26;39.30;;;34.75;;
59038;SDS011;44824;43.376;19.630;2022-11-20T09:58:54;37.40;;;33.40;;
59038;SDS011;44824;43.376;19.630;2022-11-20T10:01:26;47.40;;;37.47;;
59038;SDS011;44824;43.376;19.630;2022-11-20T10:03:57;37.38;;;30.42;;
59038;SDS011;44824;43.376;19.630;2022-11-20T10:06:34;38.08;;;29.27;;
59038;SDS011;44824;43.376;19.630;2022-11-20T10:09:14;30.73;;;25.13;;
59038;SDS011;44824;43.376;19.630;2022-11-20T10:11:56;26.33;;;19.10;;
59038;SDS011;44824;43.376;19.630;2022-11-20T10:14:26;22.95;;;18.13;;
59038;SDS011;44824;43.376;19.630;2022-11-20T10:29:47;33.38;;;24.92;;
59038;SDS011;44824;43.376;19.630;2022-11-20T10:32:19;21.77;;;16.45;;
59038;SDS011;44824;43.376;19.630;2022-11-20T10:37:22;8.30;;;4.43;;
59038;SDS011;44824;43.376;19.630;2022-11-20T10:42:16;9.50;;;3.90;;
59038;SDS011;44824;43.376;19.630;2022-11-20T10:44:47;11.63;;;4.88;;
59038;SDS011;44824;43.376;19.630;2022-11-20T10:47:28;8.80;;;4.15;;
59038;SDS011;44824;43.376;19.630;2022-11-20T10:49:57;8.15;;;3.72;;
59038;SDS011;44824;43.376;19.630;2022-11-20T11:00:05;11.50;;;5.25;;
59038;SDS011;44824;43.376;19.630;2022-11-20T11:07:53;10.82;;;6.30;;
59038;SDS011;44824;43.376;19.630;2022-11-20T11:12:52;14.27;;;7.97;;
59038;SDS011;44824;43.376;19.630;2022-11-20T11:15:25;17.75;;;10.10;;
59038;SDS011;44824;43.376;19.630;2022-11-20T11:17:52;13.75;;;8.27;;
59038;SDS011;44824;43.376;19.630;2022-11-20T11:20:19;9.55;;;5.18;;
59038;SDS011;44824;43.376;19.630;2022-11-20T11:22:47;8.13;;;3.85;;
59038;SDS011;44824;43.376;19.630;2022-11-20T11:25:24;6.45;;;2.67;;
59038;SDS011;44824;43.376;19.630;2022-11-20T11:27:51;7.93;;;2.05;;
59038;SDS011;44824;43.376;19.630;2022-11-20T11:32:43;4.93;;;1.50;;
59038;SDS011;44824;43.376;19.630;2022-11-20T11:35:23;10.40;;;5.20;;
59038;SDS011;44824;43.376;19.630;2022-11-20T11:37:50;6.45;;;2.42;;
59038;SDS011;44824;43.376;19.630;2022-11-20T11:40:19;6.75;;;3.03;;
59038;SDS011;44824;43.376;19.630;2022-11-20T11:42:56;11.02;;;5.22;;
59038;SDS011;44824;43.376;19.630;2022-11-20T11:45:24;11.18;;;6.28;;
59038;SDS011;44824;43.376;19.630;2022-11-20T11:47:50;11.40;;;4.65;;
59038;SDS011;44824;43.376;19.630;2022-11-20T11:50:24;17.75;;;8.75;;
59038;SDS011;44824;43.376;19.630;2022-11-20T11:53:09;9.35;;;3.35;;
59038;SDS011;44824;43.376;19.630;2022-11-20T11:55:40;10.93;;;6.18;;
59038;SDS011;44824;43.376;19.630;2022-11-20T12:00:34;10.80;;;6.93;;
59038;SDS011;44824;43.376;19.630;2022-11-20T12:03:16;10.98;;;3.80;;
59038;SDS011;44824;43.376;19.630;2022-11-20T12:05:49;13.52;;;7.25;;
59038;SDS011;44824;43.376;19.630;2022-11-20T12:08:36;15.57;;;8.00;;
59038;SDS011;44824;43.376;19.630;2022-11-20T12:11:06;15.02;;;9.45;;
59038;SDS011;44824;43.376;19.630;2022-11-20T12:13:40;6.70;;;2.20;;
59038;SDS011;44824;43.376;19.630;2022-11-20T12:16:10;8.40;;;1.88;;
59038;SDS011;44824;43.376;19.630;2022-11-20T12:18:38;10.93;;;2.92;;
59038;SDS011;44824;43.376;19.630;2022-11-20T12:21:11;9.85;;;2.30;;
59038;SDS011;44824;43.376;19.630;2022-11-20T12:26:54;22.58;;;13.43;;
59038;SDS011;44824;43.376;19.630;2022-11-20T12:29:29;13.40;;;6.97;;
59038;SDS011;44824;43.376;19.630;2022-11-20T12:32:05;13.02;;;5.40;;
59038;SDS011;44824;43.376;19.630;2022-11-20T12:37:11;8.85;;;4.47;;
59038;SDS011;44824;43.376;19.630;2022-11-20T12:39:40;9.95;;;3.80;;
59038;SDS011;44824;43.376;19.630;2022-11-20T12:42:14;9.48;;;4.35;;
59038;SDS011;44824;43.376;19.630;2022-11-20T12:50:02;15.48;;;9.43;;
59038;SDS011;44824;43.376;19.630;2022-11-20T12:52:38;17.58;;;7.93;;
59038;SDS011;44824;43.376;19.630;2022-11-20T13:07:50;10.00;;;2.17;;
59038;SDS011;44824;43.376;19.630;2022-11-20T13:10:23;5.35;;;2.55;;
59038;SDS011;44824;43.376;19.630;2022-11-20T13:12:55;7.22;;;2.42;;
59038;SDS011;44824;43.376;19.630;2022-11-20T13:18:08;4.95;;;1.55;;
59038;SDS011;44824;43.376;19.630;2022-11-20T13:20:35;7.53;;;1.77;;
59038;SDS011;44824;43.376;19.630;2022-11-20T13:23:01;6.83;;;1.70;;
59038;SDS011;44824;43.376;19.630;2022-11-20T13:27:54;5.70;;;1.73;;
59038;SDS011;44824;43.376;19.630;2022-11-20T13:30:21;7.53;;;1.38;;
59038;SDS011;44824;43.376;19.630;2022-11-20T13:32:54;5.65;;;1.70;;
59038;SDS011;44824;43.376;19.630;2022-11-20T13:35:31;5.55;;;1.63;;
59038;SDS011;44824;43.376;19.630;2022-11-20T13:38:11;5.50;;;2.33;;
59038;SDS011;44824;43.376;19.630;2022-11-20T13:40:56;4.68;;;1.50;;
59038;SDS011;44824;43.376;19.630;2022-11-20T13:43:46;8.63;;;1.90;;
59038;SDS011;44824;43.376;19.630;2022-11-20T13:46:13;11.32;;;4.32;;
59038;SDS011;44824;43.376;19.630;2022-11-20T13:48:43;8.98;;;3.17;;
59038;SDS011;44824;43.376;19.630;2022-11-20T13:53:53;11.05;;;3.08;;
59038;SDS011;44824;43.376;19.630;2022-11-20T14:01:58;8.30;;;3.58;;
59038;SDS011;44824;43.376;19.630;2022-11-20T14:04:26;7.65;;;2.38;;
59038;SDS011;44824;43.376;19.630;2022-11-20T14:06:54;11.35;;;5.57;;
59038;SDS011;44824;43.376;19.630;2022-11-20T14:12:14;7.35;;;2.13;;
59038;SDS011;44824;43.376;19.630;2022-11-20T14:14:47;7.63;;;1.98;;
59038;SDS011;44824;43.376;19.630;2022-11-20T14:17:23;7.35;;;1.85;;
59038;SDS011;44824;43.376;19.630;2022-11-20T14:19:51;11.85;;;3.78;;
59038;SDS011;44824;43.376;19.630;2022-11-20T14:25:01;14.43;;;5.80;;
59038;SDS011;44824;43.376;19.630;2022-11-20T14:27:27;23.15;;;12.60;;
59038;SDS011;44824;43.376;19.630;2022-11-20T14:29:53;23.92;;;12.00;;
59038;SDS011;44824;43.376;19.630;2022-11-20T14:32:21;23.17;;;10.13;;
59038;SDS011;44824;43.376;19.630;2022-11-20T14:34:50;12.43;;;5.75;;
59038;SDS011;44824;43.376;19.630;2022-11-20T14:37:18;11.87;;;6.63;;
59038;SDS011;44824;43.376;19.630;2022-11-20T14:39:50;25.48;;;14.27;;
59038;SDS011;44824;43.376;19.630;2022-11-20T14:42:26;27.98;;;17.63;;
59038;SDS011;44824;43.376;19.630;2022-11-20T14:44:54;21.95;;;11.85;;
59038;SDS011;44824;43.376;19.630;2022-11-20T14:47:22;26.10;;;11.05;;
59038;SDS011;44824;43.376;19.630;2022-11-20T14:49:49;20.90;;;10.60;;
59038;SDS011;44824;43.376;19.630;2022-11-20T14:52:19;16.52;;;9.32;;
59038;SDS011;44824;43.376;19.630;2022-11-20T14:59:47;45.60;;;30.67;;
59038;SDS011;44824;43.376;19.630;2022-11-20T15:02:13;30.23;;;19.42;;
59038;SDS011;44824;43.376;19.630;2022-11-20T15:04:46;26.00;;;17.30;;
59038;SDS011;44824;43.376;19.630;2022-11-20T15:07:23;27.35;;;16.05;;
59038;SDS011;44824;43.376;19.630;2022-11-20T15:10:11;22.20;;;10.88;;
59038;SDS011;44824;43.376;19.630;2022-11-20T15:15:20;19.67;;;12.02;;
59038;SDS011;44824;43.376;19.630;2022-11-20T15:17:47;23.83;;;13.23;;
59038;SDS011;44824;43.376;19.630;2022-11-20T15:20:14;22.90;;;12.38;;
59038;SDS011;44824;43.376;19.630;2022-11-20T15:22:41;22.17;;;10.25;;
59038;SDS011;44824;43.376;19.630;2022-11-20T15:25:14;18.63;;;9.57;;
59038;SDS011;44824;43.376;19.630;2022-11-20T15:27:41;17.58;;;9.65;;
59038;SDS011;44824;43.376;19.630;2022-11-20T15:30:12;19.92;;;10.93;;
59038;SDS011;44824;43.376;19.630;2022-11-20T15:32:39;22.75;;;13.63;;
59038;SDS011;44824;43.376;19.630;2022-11-20T15:35:05;28.58;;;13.25;;
59038;SDS011;44824;43.376;19.630;2022-11-20T15:37:32;27.98;;;15.40;;
59038;SDS011;44824;43.376;19.630;2022-11-20T15:39:58;28.63;;;15.10;;
59038;SDS011;44824;43.376;19.630;2022-11-20T15:42:24;22.33;;;14.43;;
59038;SDS011;44824;43.376;19.630;2022-11-20T15:44:50;25.92;;;15.35;;
59038;SDS011;44824;43.376;19.630;2022-11-20T15:47:16;15.25;;;8.50;;
59038;SDS011;44824;43.376;19.630;2022-11-20T15:49:42;16.63;;;7.22;;
59038;SDS011;44824;43.376;19.630;2022-11-20T15:52:09;11.82;;;3.55;;
59038;SDS011;44824;43.376;19.630;2022-11-20T15:54:35;9.80;;;2.97;;
59038;SDS011;44824;43.376;19.630;2022-11-20T15:57:01;7.53;;;2.60;;
59038;SDS011;44824;43.376;19.630;2022-11-20T15:59:28;8.32;;;3.38;;
59038;SDS011;44824;43.376;19.630;2022-11-20T16:01:54;7.77;;;2.90;;
59038;SDS011;44824;43.376;19.630;2022-11-20T16:04:20;8.10;;;2.55;;
59038;SDS011;44824;43.376;19.630;2022-11-20T16:06:46;7.32;;;2.60;;
59038;SDS011;44824;43.376;19.630;2022-11-20T16:09:12;6.57;;;2.50;;
59038;SDS011;44824;43.376;19.630;2022-11-20T16:11:43;8.25;;;2.60;;
59038;SDS011;44824;43.376;19.630;2022-11-20T16:14:10;6.18;;;2.67;;
59038;SDS011;44824;43.376;19.630;2022-11-20T16:16:55;13.07;;;3.10;;
59038;SDS011;44824;43.376;19.630;2022-11-20T16:19:21;6.88;;;2.75;;
59038;SDS011;44824;43.376;19.630;2022-11-20T16:21:47;6.03;;;2.65;;
59038;SDS011;44824;43.376;19.630;2022-11-20T16:24:13;6.47;;;2.67;;
59038;SDS011;44824;43.376;19.630;2022-11-20T16:26:43;9.00;;;4.20;;
59038;SDS011;44824;43.376;19.630;2022-11-20T16:29:09;10.00;;;3.55;;
59038;SDS011;44824;43.376;19.630;2022-11-20T16:31:35;7.47;;;3.30;;
59038;SDS011;44824;43.376;19.630;2022-11-20T16:34:05;8.80;;;3.90;;
59038;SDS011;44824;43.376;19.630;2022-11-20T16:36:32;10.98;;;5.75;;
59038;SDS011;44824;43.376;19.630;2022-11-20T16:38:59;9.80;;;5.28;;
59038;SDS011;44824;43.376;19.630;2022-11-20T16:41:26;9.20;;;5.07;;
59038;SDS011;44824;43.376;19.630;2022-11-20T16:43:53;18.08;;;10.43;;
59038;SDS011;44824;43.376;19.630;2022-11-20T16:48:51;12.82;;;6.90;;
59038;SDS011;44824;43.376;19.630;2022-11-20T16:51:17;9.27;;;5.45;;
59038;SDS011;44824;43.376;19.630;2022-11-20T16:53:44;8.02;;;4.25;;
59038;SDS011;44824;43.376;19.630;2022-11-20T16:58:36;7.82;;;4.43;;
59038;SDS011;44824;43.376;19.630;2022-11-20T17:01:09;8.00;;;4.18;;
59038;SDS011;44824;43.376;19.630;2022-11-20T17:03:39;7.15;;;3.42;;
59038;SDS011;44824;43.376;19.630;2022-11-20T17:06:15;7.47;;;3.50;;
59038;SDS011;44824;43.376;19.630;2022-11-20T17:08:42;11.68;;;3.88;;
59038;SDS011;44824;43.376;19.630;2022-11-20T17:11:09;6.17;;;2.80;;
59038;SDS011;44824;43.376;19.630;2022-11-20T17:13:36;6.53;;;2.78;;
59038;SDS011;44824;43.376;19.630;2022-11-20T17:16:03;6.25;;;3.30;;
59038;SDS011;44824;43.376;19.630;2022-11-20T17:18:29;6.60;;;2.85;;
59038;SDS011;44824;43.376;19.630;2022-11-20T17:20:56;7.35;;;3.38;;
59038;SDS011;44824;43.376;19.630;2022-11-20T17:23:22;6.68;;;3.15;;
59038;SDS011;44824;43.376;19.630;2022-11-20T17:26:01;9.30;;;3.70;;
59038;SDS011;44824;43.376;19.630;2022-11-20T17:28:31;10.60;;;7.32;;
59038;SDS011;44824;43.376;19.630;2022-11-20T17:31:00;8.93;;;4.97;;
59038;SDS011;44824;43.376;19.630;2022-11-20T17:33:27;10.05;;;6.05;;
59038;SDS011;44824;43.376;19.630;2022-11-20T17:35:53;10.48;;;4.70;;
59038;SDS011;44824;43.376;19.630;2022-11-20T17:38:19;8.02;;;3.97;;
59038;SDS011;44824;43.376;19.630;2022-11-20T17:40:45;9.95;;;4.80;;
59038;SDS011;44824;43.376;19.630;2022-11-20T17:43:11;7.45;;;2.78;;
59038;SDS011;44824;43.376;19.630;2022-11-20T17:45:37;8.50;;;4.50;;
59038;SDS011;44824;43.376;19.630;2022-11-20T17:48:04;6.47;;;2.75;;
59038;SDS011;44824;43.376;19.630;2022-11-20T17:50:30;7.65;;;3.15;;
59038;SDS011;44824;43.376;19.630;2022-11-20T17:52:56;6.50;;;2.95;;
59038;SDS011;44824;43.376;19.630;2022-11-20T17:55:22;7.95;;;3.20;;
59038;SDS011;44824;43.376;19.630;2022-11-20T17:57:54;7.90;;;4.28;;
59038;SDS011;44824;43.376;19.630;2022-11-20T18:00:26;7.40;;;3.65;;
59038;SDS011;44824;43.376;19.630;2022-11-20T18:02:54;7.43;;;3.80;;
59038;SDS011;44824;43.376;19.630;2022-11-20T18:05:20;6.22;;;3.38;;
59038;SDS011;44824;43.376;19.630;2022-11-20T18:07:50;6.68;;;3.10;;
59038;SDS011;44824;43.376;19.630;2022-11-20T18:10:16;6.43;;;2.83;;
59038;SDS011;44824;43.376;19.630;2022-11-20T18:12:42;7.85;;;2.67;;
59038;SDS011;44824;43.376;19.630;2022-11-20T18:15:09;8.25;;;2.80;;
59038;SDS011;44824;43.376;19.630;2022-11-20T18:17:35;7.10;;;3.70;;
59038;SDS011;44824;43.376;19.630;2022-11-20T18:20:01;7.60;;;3.70;;
59038;SDS011;44824;43.376;19.630;2022-11-20T18:22:27;10.77;;;6.15;;
59038;SDS011;44824;43.376;19.630;2022-11-20T18:24:53;12.50;;;7.75;;
59038;SDS011;44824;43.376;19.630;2022-11-20T18:27:19;10.50;;;5.90;;
59038;SDS011;44824;43.376;19.630;2022-11-20T18:29:46;10.30;;;6.50;;
59038;SDS011;44824;43.376;19.630;2022-11-20T18:32:15;9.27;;;5.18;;
59038;SDS011;44824;43.376;19.630;2022-11-20T18:34:41;9.15;;;4.38;;
59038;SDS011;44824;43.376;19.630;2022-11-20T18:37:07;8.50;;;4.68;;
59038;SDS011;44824;43.376;19.630;2022-11-20T18:39:34;7.38;;;4.13;;
59038;SDS011;44824;43.376;19.630;2022-11-20T18:42:00;9.52;;;4.55;;
59038;SDS011;44824;43.376;19.630;2022-11-20T18:44:45;8.32;;;3.72;;
59038;SDS011;44824;43.376;19.630;2022-11-20T18:47:25;6.32;;;2.55;;
59038;SDS011;44824;43.376;19.630;2022-11-20T18:49:54;8.27;;;2.92;;
59038;SDS011;44824;43.376;19.630;2022-11-20T18:52:23;8.23;;;4.05;;
59038;SDS011;44824;43.376;19.630;2022-11-20T18:54:49;6.40;;;2.85;;
59038;SDS011;44824;43.376;19.630;2022-11-20T18:57:16;7.60;;;4.00;;
59038;SDS011;44824;43.376;19.630;2022-11-20T18:59:43;10.73;;;3.95;;
59038;SDS011;44824;43.376;19.630;2022-11-20T19:02:10;9.82;;;4.10;;
59038;SDS011;44824;43.376;19.630;2022-11-20T19:04:37;10.50;;;4.70;;
59038;SDS011;44824;43.376;19.630;2022-11-20T19:07:03;7.13;;;3.30;;
59038;SDS011;44824;43.376;19.630;2022-11-20T19:09:29;11.18;;;3.42;;
59038;SDS011;44824;43.376;19.630;2022-11-20T19:11:56;8.45;;;4.18;;
59038;SDS011;44824;43.376;19.630;2022-11-20T19:14:22;9.40;;;2.70;;
59038;SDS011;44824;43.376;19.630;2022-11-20T19:16:48;8.32;;;3.95;;
59038;SDS011;44824;43.376;19.630;2022-11-20T19:19:15;5.40;;;2.30;;
59038;SDS011;44824;43.376;19.630;2022-11-20T19:21:41;6.43;;;2.40;;
59038;SDS011;44824;43.376;19.630;2022-11-20T19:24:08;8.25;;;2.88;;
59038;SDS011;44824;43.376;19.630;2022-11-20T19:26:43;7.13;;;3.30;;
59038;SDS011;44824;43.376;19.630;2022-11-20T19:29:11;6.32;;;2.53;;
59038;SDS011;44824;43.376;19.630;2022-11-20T19:34:03;15.35;;;8.98;;
59038;SDS011;44824;43.376;19.630;2022-11-20T19:36:33;13.52;;;5.85;;
59038;SDS011;44824;43.376;19.630;2022-11-20T19:39:00;11.45;;;5.95;;
59038;SDS011;44824;43.376;19.630;2022-11-20T19:41:28;8.02;;;3.85;;
59038;SDS011;44824;43.376;19.630;2022-11-20T19:43:56;6.72;;;3.00;;
59038;SDS011;44824;43.376;19.630;2022-11-20T19:48:48;5.65;;;2.42;;
59038;SDS011;44824;43.376;19.630;2022-11-20T19:51:18;6.13;;;2.00;;
59038;SDS011;44824;43.376;19.630;2022-11-20T19:53:45;6.35;;;2.92;;
59038;SDS011;44824;43.376;19.630;2022-11-20T19:56:11;5.28;;;2.08;;
59038;SDS011;44824;43.376;19.630;2022-11-20T19:58:37;6.63;;;2.35;;
59038;SDS011;44824;43.376;19.630;2022-11-20T20:01:07;5.63;;;1.98;;
59038;SDS011;44824;43.376;19.630;2022-11-20T20:03:34;5.32;;;1.50;;
59038;SDS011;44824;43.376;19.630;2022-11-20T20:06:01;5.13;;;1.60;;
59038;SDS011;44824;43.376;19.630;2022-11-20T20:10:53;6.65;;;2.70;;
59038;SDS011;44824;43.376;19.630;2022-11-20T20:13:20;4.35;;;1.52;;
59038;SDS011;44824;43.376;19.630;2022-11-20T20:15:46;5.18;;;1.52;;
59038;SDS011;44824;43.376;19.630;2022-11-20T20:18:12;8.50;;;3.90;;
59038;SDS011;44824;43.376;19.630;2022-11-20T20:20:38;6.47;;;2.15;;
59038;SDS011;44824;43.376;19.630;2022-11-20T20:23:04;6.10;;;2.38;;
59038;SDS011;44824;43.376;19.630;2022-11-20T20:25:33;9.13;;;3.78;;
59038;SDS011;44824;43.376;19.630;2022-11-20T20:28:02;13.40;;;4.68;;
59038;SDS011;44824;43.376;19.630;2022-11-20T20:30:28;6.25;;;2.50;;
59038;SDS011;44824;43.376;19.630;2022-11-20T20:32:54;6.82;;;1.85;;
59038;SDS011;44824;43.376;19.630;2022-11-20T20:35:20;3.83;;;1.30;;
59038;SDS011;44824;43.376;19.630;2022-11-20T20:37:46;4.60;;;1.65;;
59038;SDS011;44824;43.376;19.630;2022-11-20T20:40:12;3.92;;;1.17;;
59038;SDS011;44824;43.376;19.630;2022-11-20T20:42:38;6.10;;;2.92;;
59038;SDS011;44824;43.376;19.630;2022-11-20T20:45:04;5.45;;;1.10;;
59038;SDS011;44824;43.376;19.630;2022-11-20T20:47:31;5.97;;;2.40;;
59038;SDS011;44824;43.376;19.630;2022-11-20T20:49:58;6.95;;;2.00;;
59038;SDS011;44824;43.376;19.630;2022-11-20T20:52:24;6.43;;;2.30;;
59038;SDS011;44824;43.376;19.630;2022-11-20T20:54:54;4.22;;;1.50;;
59038;SDS011;44824;43.376;19.630;2022-11-20T20:57:35;4.47;;;1.45;;
59038;SDS011;44824;43.376;19.630;2022-11-20T21:00:02;5.38;;;1.67;;
59038;SDS011;44824;43.376;19.630;2022-11-20T21:02:29;9.63;;;3.42;;
59038;SDS011;44824;43.376;19.630;2022-11-20T21:04:55;11.10;;;5.70;;
59038;SDS011;44824;43.376;19.630;2022-11-20T21:07:21;7.40;;;3.13;;
59038;SDS011;44824;43.376;19.630;2022-11-20T21:09:47;9.40;;;3.40;;
59038;SDS011;44824;43.376;19.630;2022-11-20T21:12:13;7.00;;;2.92;;
59038;SDS011;44824;43.376;19.630;2022-11-20T21:14:39;3.65;;;1.40;;
59038;SDS011;44824;43.376;19.630;2022-11-20T21:17:05;4.53;;;1.45;;
59038;SDS011;44824;43.376;19.630;2022-11-20T21:19:31;6.00;;;2.00;;
59038;SDS011;44824;43.376;19.630;2022-11-20T21:21:57;2.85;;;1.00;;
59038;SDS011;44824;43.376;19.630;2022-11-20T21:24:24;3.50;;;1.27;;
59038;SDS011;44824;43.376;19.630;2022-11-20T21:26:51;4.75;;;1.80;;
59038;SDS011;44824;43.376;19.630;2022-11-20T21:29:20;7.65;;;2.80;;
59038;SDS011;44824;43.376;19.630;2022-11-20T21:31:47;4.28;;;1.45;;
59038;SDS011;44824;43.376;19.630;2022-11-20T21:34:13;5.35;;;1.80;;
59038;SDS011;44824;43.376;19.630;2022-11-20T21:36:39;8.70;;;3.53;;
59038;SDS011;44824;43.376;19.630;2022-11-20T21:39:06;3.47;;;1.17;;
59038;SDS011;44824;43.376;19.630;2022-11-20T21:41:32;4.50;;;1.08;;
59038;SDS011;44824;43.376;19.630;2022-11-20T21:46:49;3.67;;;0.98;;
59038;SDS011;44824;43.376;19.630;2022-11-20T21:49:15;6.43;;;1.20;;
59038;SDS011;44824;43.376;19.630;2022-11-20T21:51:42;2.60;;;0.82;;
59038;SDS011;44824;43.376;19.630;2022-11-20T21:54:08;3.25;;;0.90;;
59038;SDS011;44824;43.376;19.630;2022-11-20T21:59:02;2.55;;;0.70;;
59038;SDS011;44824;43.376;19.630;2022-11-20T22:03:56;3.30;;;0.80;;
59038;SDS011;44824;43.376;19.630;2022-11-20T22:06:28;3.20;;;0.95;;
59038;SDS011;44824;43.376;19.630;2022-11-20T22:08:54;2.90;;;0.80;;
59038;SDS011;44824;43.376;19.630;2022-11-20T22:11:20;2.67;;;0.80;;
59038;SDS011;44824;43.376;19.630;2022-11-20T22:13:52;4.03;;;1.30;;
59038;SDS011;44824;43.376;19.630;2022-11-20T22:16:37;3.40;;;1.02;;
59038;SDS011;44824;43.376;19.630;2022-11-20T22:19:03;4.88;;;1.10;;
59038;SDS011;44824;43.376;19.630;2022-11-20T22:21:30;4.35;;;1.20;;
59038;SDS011;44824;43.376;19.630;2022-11-20T22:23:56;18.15;;;1.90;;
59038;SDS011;44824;43.376;19.630;2022-11-20T22:26:23;3.55;;;1.10;;
59038;SDS011;44824;43.376;19.630;2022-11-20T22:29:02;4.15;;;1.10;;
59038;SDS011;44824;43.376;19.630;2022-11-20T22:31:28;3.50;;;1.08;;
59038;SDS011;44824;43.376;19.630;2022-11-20T22:33:55;3.10;;;0.80;;
59038;SDS011;44824;43.376;19.630;2022-11-20T22:36:22;3.65;;;1.10;;
59038;SDS011;44824;43.376;19.630;2022-11-20T22:38:48;4.25;;;1.20;;
59038;SDS011;44824;43.376;19.630;2022-11-20T22:41:15;9.88;;;1.45;;
59038;SDS011;44824;43.376;19.630;2022-11-20T22:43:48;5.32;;;1.05;;
59038;SDS011;44824;43.376;19.630;2022-11-20T22:46:18;4.93;;;1.45;;
59038;SDS011;44824;43.376;19.630;2022-11-20T22:51:17;3.03;;;0.80;;
59038;SDS011;44824;43.376;19.630;2022-11-20T22:53:47;4.88;;;1.08;;